Time;durP1;ratioP1;P1;durP2;ratioP2;P2;SDS_P1;SDS_P2;PMS_P1;PMS_P2;Temp;Humidity;BMP_temperature;BMP_pressure;BME280_temperature;BME280_humidity;BME280_pressure;Samples;Min_cycle;Max_cycle;Signal;HPM_P1;HPM_P2
2021/05/14 00:00:32;;;;;;;6.87;5.93;;;14.40;91.20;;;;;;5083473;28;20216;-73
2021/05/14 00:02:59;;;;;;;7.17;6.47;;;14.30;91.30;;;;;;5084988;28;20225;-73
2021/05/14 00:05:26;;;;;;;8.53;6.03;;;14.30;91.30;;;;;;5084204;28;20205;-73
2021/05/14 00:07:53;;;;;;;6.03;5.30;;;14.30;91.40;;;;;;5082305;28;20206;-73
2021/05/14 00:10:22;;;;;;;7.73;5.63;;;14.30;91.40;;;;;;5085824;28;20535;-73
2021/05/14 00:12:53;;;;;;;7.63;6.00;;;14.20;91.40;;;;;;5083768;28;20237;-72
2021/05/14 00:15:20;;;;;;;6.53;5.97;;;14.30;91.40;;;;;;5083113;28;20305;-73
2021/05/14 00:17:49;;;;;;;6.13;5.53;;;14.20;91.50;;;;;;5085297;28;20205;-73
2021/05/14 00:20:18;;;;;;;7.20;5.33;;;14.20;91.50;;;;;;5083640;28;20246;-73
2021/05/14 00:22:45;;;;;;;6.40;5.80;;;14.20;91.50;;;;;;5083633;28;20241;-73
2021/05/14 00:25:13;;;;;;;6.43;5.83;;;14.10;91.80;;;;;;5083130;28;20229;-73
2021/05/14 00:27:41;;;;;;;9.63;6.63;;;14.10;91.50;;;;;;5085170;28;20221;-73
2021/05/14 00:30:09;;;;;;;9.13;6.57;;;14.00;91.50;;;;;;5085384;28;20881;-72
2021/05/14 00:32:37;;;;;;;9.80;6.77;;;14.00;91.60;;;;;;5082706;28;20233;-73
2021/05/14 00:35:05;;;;;;;6.97;6.30;;;14.00;91.70;;;;;;5077895;28;20574;-73
2021/05/14 00:37:33;;;;;;;7.23;6.40;;;14.00;91.80;;;;;;5080408;28;20622;-72
2021/05/14 00:40:00;;;;;;;7.97;7.13;;;14.00;91.80;;;;;;5078836;28;20224;-73
2021/05/14 00:42:27;;;;;;;8.43;6.73;;;13.90;91.70;;;;;;5078431;28;20552;-73
2021/05/14 00:44:54;;;;;;;9.83;7.33;;;13.90;91.70;;;;;;5078275;28;20279;-73
2021/05/14 00:47:21;;;;;;;9.07;6.37;;;13.80;91.70;;;;;;5078391;28;20242;-73
2021/05/14 00:49:49;;;;;;;5.83;5.17;;;13.70;91.70;;;;;;5078043;28;20662;-73
2021/05/14 00:52:18;;;;;;;6.80;5.73;;;13.70;91.80;;;;;;5078369;28;20227;-73
2021/05/14 00:54:47;;;;;;;6.90;6.00;;;13.70;91.80;;;;;;5081138;28;20255;-72
2021/05/14 00:57:17;;;;;;;6.13;5.53;;;13.70;91.80;;;;;;5081756;28;20206;-72
2021/05/14 00:59:47;;;;;;;6.70;5.47;;;13.70;91.80;;;;;;5085704;28;20219;-73
2021/05/14 01:02:15;;;;;;;6.77;6.07;;;13.60;91.80;;;;;;5083586;28;20236;-73
2021/05/14 01:04:43;;;;;;;6.87;5.60;;;13.70;91.80;;;;;;5082846;28;20208;-72
2021/05/14 01:07:12;;;;;;;7.57;6.30;;;13.60;91.70;;;;;;5084518;28;20209;-72
2021/05/14 01:09:41;;;;;;;5.53;4.67;;;13.60;91.90;;;;;;5083430;28;20711;-73
2021/05/14 01:12:10;;;;;;;8.20;4.93;;;13.60;92.00;;;;;;5083251;28;20439;-73
2021/05/14 01:14:42;;;;;;;6.83;5.00;;;13.60;91.90;;;;;;5080380;28;20217;-73
2021/05/14 01:17:11;;;;;;;6.20;5.70;;;13.50;91.70;;;;;;5082934;28;20605;-73
2021/05/14 01:19:38;;;;;;;6.00;5.17;;;13.50;91.70;;;;;;5083264;28;20660;-73
2021/05/14 01:22:06;;;;;;;5.37;4.87;;;13.40;91.60;;;;;;5082556;28;20251;-73
2021/05/14 01:24:33;;;;;;;5.40;4.90;;;13.40;91.60;;;;;;5081060;28;20271;-73
2021/05/14 01:27:02;;;;;;;8.20;5.47;;;13.40;91.50;;;;;;5082333;28;20209;-73
2021/05/14 01:29:29;;;;;;;7.50;5.40;;;13.30;91.50;;;;;;5086677;28;20630;-73
2021/05/14 01:31:57;;;;;;;9.07;6.63;;;13.30;91.50;;;;;;5083438;28;20227;-73
2021/05/14 01:34:25;;;;;;;6.33;5.77;;;13.20;91.60;;;;;;5083278;28;20237;-73
2021/05/14 01:36:52;;;;;;;6.90;5.73;;;13.20;91.80;;;;;;5081900;28;20213;-72
2021/05/14 01:39:23;;;;;;;7.57;6.17;;;13.20;91.90;;;;;;5085322;28;20658;-73
2021/05/14 01:41:52;;;;;;;12.27;5.90;;;13.10;91.90;;;;;;5083913;28;20271;-73
2021/05/14 01:44:22;;;;;;;6.73;6.13;;;13.10;91.90;;;;;;5077366;28;20244;-72
2021/05/14 01:46:49;;;;;;;6.00;5.40;;;13.10;92.00;;;;;;5084478;28;20219;-73
2021/05/14 01:49:17;;;;;;;5.63;5.13;;;13.10;92.00;;;;;;5077326;28;20568;-73
2021/05/14 01:51:45;;;;;;;9.67;5.73;;;13.10;92.00;;;;;;5083627;28;20209;-73
2021/05/14 01:54:12;;;;;;;5.53;4.70;;;13.10;91.90;;;;;;5078427;28;20230;-72
2021/05/14 01:56:47;;;;;;;5.43;4.93;;;13.00;91.80;;;;;;5084733;28;20209;-73
2021/05/14 01:59:14;;;;;;;10.30;6.00;;;13.00;91.80;;;;;;5084319;28;20212;-73
2021/05/14 02:01:42;;;;;;;12.33;5.97;;;13.00;91.90;;;;;;5081173;28;20209;-72
2021/05/14 02:04:10;;;;;;;7.87;7.13;;;13.00;92.00;;;;;;5083595;28;20270;-73
2021/05/14 02:06:37;;;;;;;9.30;6.73;;;12.90;91.90;;;;;;5081459;28;20224;-72
2021/05/14 02:09:05;;;;;;;8.97;6.40;;;12.90;92.10;;;;;;5083346;28;20219;-72
2021/05/14 02:11:33;;;;;;;6.30;5.60;;;12.90;92.10;;;;;;5081981;28;20421;-72
2021/05/14 02:14:00;;;;;;;6.37;5.83;;;12.90;92.10;;;;;;5082493;28;20252;-73
2021/05/14 02:16:27;;;;;;;5.37;4.83;;;12.80;91.90;;;;;;5082907;28;20209;-73
2021/05/14 02:18:54;;;;;;;143.70;10.80;;;12.80;91.90;;;;;;5081660;28;20217;-73
2021/05/14 02:21:21;;;;;;;5.23;4.70;;;12.70;91.60;;;;;;5082200;28;20638;-73
2021/05/14 02:23:49;;;;;;;6.07;4.90;;;12.60;91.70;;;;;;5079420;28;20282;-73
2021/05/14 02:26:16;;;;;;;6.17;5.57;;;12.60;91.80;;;;;;5080860;28;20660;-72
2021/05/14 02:28:43;;;;;;;6.33;5.77;;;12.50;91.80;;;;;;5084098;28;20218;-72
2021/05/14 02:31:10;;;;;;;9.23;6.93;;;12.50;91.80;;;;;;5083335;28;20228;-72
2021/05/14 02:33:37;;;;;;;5.50;5.10;;;12.60;91.80;;;;;;5081718;28;20237;-72
2021/05/14 02:36:04;;;;;;;9.10;6.17;;;12.60;91.80;;;;;;5082090;28;20263;-72
2021/05/14 02:38:31;;;;;;;6.53;5.93;;;12.50;91.70;;;;;;5084400;28;20212;-72
2021/05/14 02:40:58;;;;;;;5.53;5.03;;;12.50;91.70;;;;;;5078786;28;20297;-73
2021/05/14 02:43:25;;;;;;;10.00;5.83;;;12.50;91.60;;;;;;5079905;28;20239;-73
2021/05/14 02:45:53;;;;;;;5.70;5.20;;;12.50;91.50;;;;;;5083010;28;20547;-73
2021/05/14 02:48:20;;;;;;;4.57;4.27;;;12.40;91.40;;;;;;5080108;28;20222;-72
2021/05/14 02:50:47;;;;;;;5.83;4.97;;;12.40;91.70;;;;;;5080206;28;20261;-73
2021/05/14 02:53:15;;;;;;;6.57;5.83;;;12.40;91.30;;;;;;5078775;28;20237;-72
2021/05/14 02:55:42;;;;;;;37.50;6.70;;;12.40;91.20;;;;;;5079488;28;20205;-72
2021/05/14 02:58:09;;;;;;;4.77;4.37;;;12.30;91.20;;;;;;5083481;28;20545;-72
2021/05/14 03:00:37;;;;;;;4.90;4.50;;;12.20;91.50;;;;;;5080172;28;20213;-72
2021/05/14 03:03:04;;;;;;;3.33;2.97;;;12.10;91.30;;;;;;5082931;28;20555;-72
2021/05/14 03:05:31;;;;;;;10.43;3.57;;;12.10;91.30;;;;;;5079994;28;20224;-72
2021/05/14 03:07:58;;;;;;;34.77;4.13;;;12.10;91.40;;;;;;5080596;28;20210;-72
2021/05/14 03:10:25;;;;;;;3.50;3.30;;;12.00;91.40;;;;;;5083007;28;20208;-72
2021/05/14 03:12:52;;;;;;;4.80;4.40;;;12.00;91.60;;;;;;5081080;28;20233;-73
2021/05/14 03:15:20;;;;;;;4.03;3.40;;;12.00;92.00;;;;;;5081098;28;20807;-73
2021/05/14 03:17:47;;;;;;;3.57;3.27;;;12.00;91.70;;;;;;5083259;28;20205;-72
2021/05/14 03:20:14;;;;;;;3.50;3.30;;;12.10;91.70;;;;;;5086516;28;20265;-71
2021/05/14 03:22:41;;;;;;;8.40;3.90;;;12.10;91.60;;;;;;5084698;28;20328;-72
2021/05/14 03:25:10;;;;;;;8.87;8.07;;;12.10;91.50;;;;;;5083522;28;20605;-72
2021/05/14 03:27:38;;;;;;;6.03;5.53;;;12.20;91.40;;;;;;5086497;28;20631;-72
2021/05/14 03:30:07;;;;;;;7.30;3.83;;;12.10;91.40;;;;;;5087783;28;20212;-72
2021/05/14 03:32:35;;;;;;;3.23;2.40;;;12.20;91.40;;;;;;5085507;28;20220;-72
2021/05/14 03:35:03;;;;;;;3.70;3.40;;;12.20;91.40;;;;;;5084108;28;20209;-73
2021/05/14 03:37:30;;;;;;;3.90;3.60;;;12.10;91.40;;;;;;5087409;28;20209;-72
2021/05/14 03:40:03;;;;;;;5.03;3.70;;;12.10;91.30;;;;;;5087527;28;20630;-72
2021/05/14 03:42:30;;;;;;;4.53;4.20;;;12.00;91.30;;;;;;5083886;28;20210;-72
2021/05/14 03:44:57;;;;;;;4.70;4.30;;;11.90;91.20;;;;;;5085397;28;20208;-72
2021/05/14 03:47:25;;;;;;;5.63;4.00;;;11.90;91.30;;;;;;5084766;28;20637;-72
2021/05/14 03:49:52;;;;;;;5.73;5.23;;;11.80;91.30;;;;;;5084280;28;20213;-73
2021/05/14 03:52:19;;;;;;;6.87;6.27;;;11.80;91.40;;;;;;5085386;28;20213;-72
2021/05/14 03:54:46;;;;;;;7.13;5.30;;;11.80;91.50;;;;;;5082589;28;20255;-72
2021/05/14 03:57:14;;;;;;;9.47;5.17;;;11.80;91.50;;;;;;5085043;28;20224;-72
2021/05/14 03:59:41;;;;;;;5.07;4.67;;;11.80;91.50;;;;;;5086598;28;20653;-72
2021/05/14 04:02:10;;;;;;;5.50;5.00;;;11.90;91.40;;;;;;5083760;28;20805;-73
2021/05/14 04:04:37;;;;;;;4.57;4.23;;;11.90;91.40;;;;;;5084198;28;20301;-72
2021/05/14 04:07:05;;;;;;;4.70;4.30;;;11.90;91.30;;;;;;5083563;28;20221;-72
2021/05/14 04:09:35;;;;;;;5.77;3.87;;;11.90;91.20;;;;;;5085325;28;20217;-72
2021/05/14 04:14:48;;;;;;;7.97;3.50;;;11.80;90.70;;;;;;5084237;28;20236;-73
2021/05/14 04:17:26;;;;;;;4.03;3.43;;;11.80;90.60;;;;;;5085362;28;20300;-73
2021/05/14 04:19:53;;;;;;;3.60;3.17;;;11.80;90.60;;;;;;5083809;28;20209;-73
2021/05/14 04:22:20;;;;;;;3.00;2.67;;;11.80;90.60;;;;;;5085093;28;20242;-73
2021/05/14 04:24:47;;;;;;;3.43;3.13;;;11.80;90.50;;;;;;5082188;28;20213;-73
2021/05/14 04:27:15;;;;;;;2.33;2.13;;;11.80;90.50;;;;;;5084876;28;20648;-73
2021/05/14 04:29:42;;;;;;;2.17;2.00;;;11.80;90.50;;;;;;5087550;28;20637;-74
2021/05/14 04:32:10;;;;;;;3.47;3.17;;;11.90;90.20;;;;;;5084169;28;20237;-73
2021/05/14 04:34:37;;;;;;;4.57;3.97;;;11.90;90.20;;;;;;5083415;28;20264;-73
2021/05/14 04:37:05;;;;;;;5.17;4.67;;;11.90;90.30;;;;;;5083863;28;20598;-73
2021/05/14 04:39:33;;;;;;;5.37;4.40;;;12.10;90.40;;;;;;5086691;28;20641;-73
2021/05/14 04:42:00;;;;;;;5.40;4.90;;;12.20;90.40;;;;;;5083813;28;20217;-73
2021/05/14 04:44:28;;;;;;;6.53;4.50;;;12.30;90.30;;;;;;5083199;28;20663;-73
2021/05/14 04:46:55;;;;;;;7.20;5.77;;;12.40;90.20;;;;;;5084899;28;20633;-73
2021/05/14 04:49:22;;;;;;;9.73;5.93;;;12.40;90.00;;;;;;5082999;28;20201;-73
2021/05/14 04:51:50;;;;;;;9.23;5.40;;;12.50;90.10;;;;;;5085028;28;20245;-73
2021/05/14 04:54:17;;;;;;;6.47;5.77;;;12.50;90.10;;;;;;5081622;28;20241;-73
2021/05/14 04:56:44;;;;;;;7.97;6.20;;;12.60;90.00;;;;;;5082974;28;20547;-73
2021/05/14 04:59:11;;;;;;;7.37;5.80;;;12.70;90.00;;;;;;5088129;28;20213;-73
2021/05/14 05:01:42;;;;;;;13.83;6.57;;;12.80;89.80;;;;;;5082990;28;20637;-73
2021/05/14 05:04:14;;;;;;;12.90;7.53;;;13.00;89.70;;;;;;5085625;28;20235;-73
2021/05/14 05:06:41;;;;;;;8.77;6.43;;;13.10;89.20;;;;;;5080949;28;20638;-73
2021/05/14 05:09:08;;;;;;;17.90;7.30;;;13.20;89.10;;;;;;5085562;28;20554;-73
2021/05/14 05:11:35;;;;;;;13.33;7.30;;;13.40;89.10;;;;;;5081759;28;20224;-73
2021/05/14 05:14:02;;;;;;;14.03;7.13;;;13.50;89.00;;;;;;5084914;28;20676;-73
2021/05/14 05:16:29;;;;;;;11.20;6.87;;;13.60;88.70;;;;;;5080876;28;20220;-73
2021/05/14 05:18:56;;;;;;;9.80;7.80;;;13.80;88.40;;;;;;5085120;28;20354;-73
2021/05/14 05:21:24;;;;;;;7.50;6.70;;;14.00;87.90;;;;;;5076180;28;20229;-73
2021/05/14 05:23:51;;;;;;;9.67;7.30;;;14.10;87.50;;;;;;5076607;28;20217;-73
2021/05/14 05:26:18;;;;;;;15.47;7.50;;;14.30;87.30;;;;;;5083737;28;20217;-73
2021/05/14 05:28:45;;;;;;;10.33;7.40;;;14.40;87.50;;;;;;5081520;28;20536;-73
2021/05/14 05:31:13;;;;;;;11.33;6.73;;;14.60;87.00;;;;;;5084870;28;20553;-73
2021/05/14 05:33:40;;;;;;;7.93;6.73;;;14.80;86.60;;;;;;5082072;28;20521;-73
2021/05/14 05:36:07;;;;;;;10.23;6.97;;;15.00;85.90;;;;;;5083646;28;20209;-73
2021/05/14 05:38:34;;;;;;;11.73;7.13;;;15.20;85.40;;;;;;5086191;28;20397;-73
2021/05/14 05:41:01;;;;;;;12.17;7.20;;;15.50;84.90;;;;;;5083582;28;20303;-73
2021/05/14 05:43:28;;;;;;;13.03;7.20;;;15.70;83.80;;;;;;5081886;28;20213;-73
2021/05/14 05:45:55;;;;;;;10.70;6.90;;;15.80;83.30;;;;;;5083976;28;20272;-73
2021/05/14 05:48:23;;;;;;;12.23;6.90;;;16.00;82.90;;;;;;5081507;28;20312;-73
2021/05/14 05:50:50;;;;;;;10.37;6.00;;;16.10;82.40;;;;;;5083595;28;20205;-73
2021/05/14 05:53:18;;;;;;;11.73;6.63;;;16.30;82.10;;;;;;5081417;28;20217;-73
2021/05/14 05:55:45;;;;;;;10.67;7.00;;;16.50;81.50;;;;;;5083203;28;20562;-74
2021/05/14 05:58:14;;;;;;;9.50;6.00;;;16.70;81.00;;;;;;5081371;28;20638;-74
2021/05/14 06:00:42;;;;;;;11.83;6.53;;;16.80;80.60;;;;;;5083206;28;20209;-73
2021/05/14 06:03:10;;;;;;;8.60;6.37;;;17.00;80.50;;;;;;5080844;28;20213;-73
2021/05/14 06:05:38;;;;;;;9.37;6.37;;;17.20;80.00;;;;;;5083279;28;20221;-74
2021/05/14 06:08:06;;;;;;;12.27;6.30;;;17.50;79.50;;;;;;5080843;28;20210;-73
2021/05/14 06:10:34;;;;;;;9.90;6.77;;;17.70;78.90;;;;;;5076783;28;20225;-73
2021/05/14 06:13:01;;;;;;;13.57;6.23;;;17.90;78.30;;;;;;5075647;28;20612;-73
2021/05/14 06:15:28;;;;;;;10.47;7.40;;;18.00;77.60;;;;;;5075467;28;20237;-73
2021/05/14 06:17:55;;;;;;;10.33;7.70;;;18.30;77.10;;;;;;5084100;28;20939;-73
2021/05/14 06:20:25;;;;;;;10.33;7.50;;;18.40;76.70;;;;;;5080442;28;20281;-73
2021/05/14 06:22:53;;;;;;;10.13;7.07;;;18.60;76.40;;;;;;5075460;28;20715;-73
2021/05/14 06:25:20;;;;;;;13.03;7.97;;;18.80;75.60;;;;;;5079413;28;20212;-73
2021/05/14 06:27:47;;;;;;;11.17;8.10;;;19.00;75.10;;;;;;5084640;28;20267;-73
2021/05/14 06:30:15;;;;;;;10.53;8.47;;;19.20;74.20;;;;;;5076943;28;20541;-73
2021/05/14 06:32:42;;;;;;;16.63;8.13;;;19.30;74.20;;;;;;5083978;28;20610;-73
2021/05/14 06:35:10;;;;;;;13.20;8.37;;;19.50;73.70;;;;;;5080303;28;20229;-73
2021/05/14 06:37:37;;;;;;;11.60;8.50;;;19.60;72.80;;;;;;5083785;28;20579;-73
2021/05/14 06:40:06;;;;;;;14.93;7.53;;;19.80;72.20;;;;;;5083016;28;20221;-73
2021/05/14 06:42:34;;;;;;;10.93;7.23;;;19.90;71.70;;;;;;5079447;28;20210;-73
2021/05/14 06:45:01;;;;;;;9.60;7.40;;;20.20;70.70;;;;;;5083834;28;20217;-73
2021/05/14 06:47:28;;;;;;;9.70;5.70;;;20.30;69.40;;;;;;5083758;28;20212;-73
2021/05/14 06:49:57;;;;;;;8.67;5.33;;;20.50;68.10;;;;;;5080578;28;20224;-73
2021/05/14 06:52:24;;;;;;;10.83;6.23;;;20.60;66.00;;;;;;5080740;28;20256;-73
2021/05/14 06:54:51;;;;;;;9.80;5.47;;;20.80;66.70;;;;;;5078012;28;20243;-73
2021/05/14 06:57:18;;;;;;;11.70;4.93;;;20.90;66.10;;;;;;5079737;28;20224;-73
2021/05/14 06:59:45;;;;;;;11.50;4.80;;;21.10;65.50;;;;;;5082583;28;20204;-73
2021/05/14 07:02:13;;;;;;;5.53;3.53;;;21.20;64.30;;;;;;5079370;28;20588;-73
2021/05/14 07:04:40;;;;;;;7.50;2.80;;;21.30;62.50;;;;;;5082614;28;20311;-73
2021/05/14 07:07:07;;;;;;;6.10;2.30;;;21.40;61.60;;;;;;5079624;28;20304;-73
2021/05/14 07:09:35;;;;;;;16.43;3.13;;;21.50;60.10;;;;;;5082547;28;20221;-73
2021/05/14 07:12:02;;;;;;;6.60;3.40;;;21.60;59.80;;;;;;5080148;28;20486;-73
2021/05/14 07:14:29;;;;;;;6.47;3.47;;;21.70;59.80;;;;;;5083003;28;20243;-73
2021/05/14 07:16:57;;;;;;;8.77;3.37;;;21.90;59.70;;;;;;5080155;28;20653;-73
2021/05/14 07:19:26;;;;;;;13.00;4.23;;;22.00;60.60;;;;;;5083187;28;20633;-73
2021/05/14 07:21:54;;;;;;;9.90;3.60;;;22.10;59.70;;;;;;5079205;28;20238;-73
2021/05/14 07:24:22;;;;;;;5.60;2.50;;;22.20;58.00;;;;;;5079385;28;20216;-73
2021/05/14 07:26:49;;;;;;;7.00;3.20;;;22.20;57.50;;;;;;5082599;28;20219;-73
2021/05/14 07:29:16;;;;;;;8.03;2.90;;;22.30;57.30;;;;;;5079997;28;20227;-73
2021/05/14 07:31:44;;;;;;;8.43;2.87;;;22.40;56.40;;;;;;5081992;28;20209;-73
2021/05/14 07:34:11;;;;;;;9.40;3.43;;;22.50;55.50;;;;;;5080478;28;20252;-73
2021/05/14 07:36:45;;;;;;;11.60;4.17;;;22.60;55.90;;;;;;5081550;28;20423;-73
2021/05/14 07:39:12;;;;;;;10.20;4.57;;;22.70;55.80;;;;;;5083571;28;20581;-73
2021/05/14 07:41:39;;;;;;;8.43;3.60;;;22.80;56.10;;;;;;5081439;28;20213;-73
2021/05/14 07:44:07;;;;;;;7.23;2.67;;;22.90;54.60;;;;;;5082148;28;20294;-73
2021/05/14 07:46:34;;;;;;;8.17;3.60;;;22.90;54.10;;;;;;5082035;28;20216;-73
2021/05/14 07:49:01;;;;;;;11.50;3.30;;;22.90;53.70;;;;;;5080160;28;20593;-73
2021/05/14 07:51:28;;;;;;;6.23;2.60;;;23.00;54.50;;;;;;5080905;28;20210;-73
2021/05/14 07:53:59;;;;;;;10.03;3.00;;;22.90;52.60;;;;;;5077570;28;20213;-72
2021/05/14 07:56:26;;;;;;;5.20;2.57;;;22.90;52.50;;;;;;5081262;28;20206;-72
2021/05/14 07:58:53;;;;;;;8.33;3.03;;;22.80;52.40;;;;;;5081358;28;20209;-73
2021/05/14 08:01:20;;;;;;;11.47;3.40;;;22.90;53.00;;;;;;5082453;28;20213;-73
2021/05/14 08:03:47;;;;;;;67.23;8.43;;;23.00;53.50;;;;;;5080296;28;20225;-73
2021/05/14 08:06:14;;;;;;;15.27;2.97;;;23.30;52.60;;;;;;5083395;28;20205;-72
2021/05/14 08:08:42;;;;;;;4.80;2.50;;;23.40;51.60;;;;;;5084668;28;20225;-72
2021/05/14 08:11:09;;;;;;;6.37;3.03;;;23.60;51.10;;;;;;5084077;28;20296;-72
2021/05/14 08:13:36;;;;;;;11.97;3.07;;;23.70;51.80;;;;;;5084679;28;20210;-72
2021/05/14 08:16:03;;;;;;;6.60;2.67;;;23.70;49.40;;;;;;5084923;28;20236;-72
2021/05/14 08:18:30;;;;;;;7.00;2.73;;;23.40;51.80;;;;;;5084732;28;20214;-73
2021/05/14 08:20:58;;;;;;;10.70;2.80;;;23.40;51.50;;;;;;5086538;28;20234;-72
2021/05/14 08:23:25;;;;;;;7.67;3.17;;;23.20;50.80;;;;;;5084018;28;20270;-72
2021/05/14 08:25:52;;;;;;;6.00;2.73;;;23.10;52.00;;;;;;5082418;28;20219;-72
2021/05/14 08:28:19;;;;;;;7.37;2.33;;;23.30;53.70;;;;;;5084397;28;20213;-72
2021/05/14 08:30:48;;;;;;;13.30;3.03;;;23.50;53.70;;;;;;5080671;28;20301;-72
2021/05/14 08:33:16;;;;;;;9.50;2.47;;;23.60;52.70;;;;;;5084177;28;20218;-72
2021/05/14 08:35:43;;;;;;;11.10;2.73;;;23.60;51.70;;;;;;5084419;28;20243;-72
2021/05/14 08:38:12;;;;;;;6.93;2.00;;;23.60;52.50;;;;;;5086457;28;20287;-72
2021/05/14 08:40:40;;;;;;;17.07;3.00;;;23.70;51.70;;;;;;5079839;28;20223;-72
2021/05/14 08:43:11;;;;;;;5.43;2.50;;;23.80;52.10;;;;;;5083413;28;20224;-72
2021/05/14 08:45:39;;;;;;;9.00;2.40;;;23.90;51.30;;;;;;5084602;28;20214;-72
2021/05/14 08:48:12;;;;;;;6.97;2.27;;;23.90;51.50;;;;;;5083246;28;20228;-72
2021/05/14 08:50:41;;;;;;;23.33;3.37;;;24.00;51.40;;;;;;5084763;28;20682;-72
2021/05/14 08:53:28;;;;;;;13.40;2.93;;;24.10;50.90;;;;;;5082064;28;20263;-72
2021/05/14 08:55:56;;;;;;;6.83;2.37;;;24.40;50.90;;;;;;5081804;28;20664;-72
2021/05/14 08:58:23;;;;;;;4.50;2.03;;;24.70;49.90;;;;;;5084405;28;20557;-72
2021/05/14 09:00:51;;;;;;;6.63;2.20;;;24.90;49.30;;;;;;5081511;28;20217;-72
2021/05/14 09:03:19;;;;;;;6.77;2.30;;;25.20;48.40;;;;;;5083277;28;20217;-71
2021/05/14 09:05:47;;;;;;;5.73;2.43;;;25.30;46.90;;;;;;5083559;28;20220;-71
2021/05/14 09:08:30;;;;;;;4.93;1.97;;;25.20;46.80;;;;;;5082939;28;20224;-71
2021/05/14 09:10:59;;;;;;;8.80;2.33;;;25.20;47.20;;;;;;5079657;28;20291;-72
2021/05/14 09:13:37;;;;;;;6.83;2.30;;;25.30;47.80;;;;;;5083671;28;20228;-71
2021/05/14 09:16:05;;;;;;;6.23;2.50;;;25.50;47.40;;;;;;5083064;28;20237;-72
2021/05/14 09:18:32;;;;;;;7.57;2.53;;;25.60;45.60;;;;;;5082826;28;20220;-71
2021/05/14 09:21:01;;;;;;;8.30;2.60;;;25.30;46.40;;;;;;5083773;28;20249;-71
2021/05/14 09:23:38;;;;;;;5.73;2.63;;;25.10;46.40;;;;;;5082570;28;20220;-71
2021/05/14 09:26:14;;;;;;;8.10;2.10;;;25.10;47.80;;;;;;5076871;28;20217;-71
2021/05/14 09:28:47;;;;;;;5.13;2.13;;;25.20;47.70;;;;;;5079895;28;20237;-72
2021/05/14 09:31:15;;;;;;;7.57;2.20;;;25.20;46.30;;;;;;5080222;28;20420;-72
2021/05/14 09:33:43;;;;;;;3.67;2.00;;;25.20;45.80;;;;;;5083873;28;20217;-71
2021/05/14 09:36:21;;;;;;;4.87;1.80;;;25.10;45.00;;;;;;5082952;28;20236;-71
2021/05/14 09:39:00;;;;;;;8.87;2.43;;;25.00;46.10;;;;;;5085364;28;20537;-71
2021/05/14 09:41:46;;;;;;;5.17;1.83;;;24.90;47.10;;;;;;5079261;28;20216;-71
2021/05/14 09:44:20;;;;;;;6.90;2.03;;;24.80;45.50;;;;;;5081221;28;20217;-71
2021/05/14 09:46:57;;;;;;;6.50;1.70;;;24.70;47.10;;;;;;5078461;28;20226;-71
2021/05/14 09:49:30;;;;;;;8.27;1.97;;;24.80;45.70;;;;;;5083464;28;20288;-71
2021/05/14 09:51:58;;;;;;;8.07;1.87;;;25.00;45.40;;;;;;5082611;28;20206;-71
2021/05/14 09:54:41;;;;;;;5.73;1.70;;;25.20;44.50;;;;;;5080777;28;20558;-71
2021/05/14 09:57:31;;;;;;;5.07;1.60;;;25.30;42.90;;;;;;5079077;28;20249;-71
2021/05/14 10:00:06;;;;;;;4.50;1.53;;;25.50;43.40;;;;;;5077270;28;20224;-72
2021/05/14 10:02:38;;;;;;;4.87;1.70;;;25.70;43.80;;;;;;5079003;28;20611;-71
2021/05/14 10:05:07;;;;;;;7.03;1.67;;;25.80;43.30;;;;;;5083066;28;20216;-71
2021/05/14 10:07:37;;;;;;;4.70;1.43;;;25.70;43.70;;;;;;5082888;28;20218;-71
2021/05/14 10:10:07;;;;;;;5.63;1.67;;;25.50;43.90;;;;;;5082742;28;20655;-71
2021/05/14 10:12:38;;;;;;;8.57;1.80;;;25.20;44.50;;;;;;5083465;28;20334;-71
2021/05/14 10:15:13;;;;;;;5.57;2.13;;;25.00;45.30;;;;;;5081509;28;20229;-71
2021/05/14 10:17:46;;;;;;;5.23;1.80;;;25.10;45.50;;;;;;5077011;28;20219;-71
2021/05/14 10:20:19;;;;;;;7.57;2.00;;;25.20;45.40;;;;;;5083643;28;20228;-71
2021/05/14 10:22:51;;;;;;;7.40;2.27;;;25.40;44.40;;;;;;5082165;28;20256;-71
2021/05/14 10:25:37;;;;;;;7.67;1.60;;;25.50;44.90;;;;;;5080009;28;20231;-70
2021/05/14 10:28:11;;;;;;;4.60;1.60;;;25.70;44.80;;;;;;5077627;28;20220;-72
2021/05/14 10:30:57;;;;;;;4.23;1.63;;;25.90;45.10;;;;;;5080037;28;20235;-71
2021/05/14 10:33:43;;;;;;;7.23;2.10;;;25.90;44.60;;;;;;5077036;28;20214;-71
2021/05/14 10:36:24;;;;;;;5.87;1.90;;;25.80;43.70;;;;;;5080704;28;20627;-71
2021/05/14 10:39:10;;;;;;;3.30;1.60;;;25.80;44.60;;;;;;5081296;28;20288;-71
2021/05/14 10:41:54;;;;;;;3.50;1.73;;;25.90;44.50;;;;;;5078966;28;20209;-71
2021/05/14 10:44:51;;;;;;;7.30;1.90;;;25.70;44.60;;;;;;5079489;28;20521;-71
2021/05/14 10:47:22;;;;;;;8.40;2.23;;;25.50;45.40;;;;;;5079243;28;20520;-71
2021/05/14 10:49:54;;;;;;;7.50;2.40;;;25.60;45.70;;;;;;5080857;28;20201;-71
2021/05/14 11:11:56;;;;;;;6.30;2.07;;;24.80;47.20;;;;;;5075375;28;20633;-71
2021/05/14 11:14:46;;;;;;;7.70;2.30;;;24.30;47.40;;;;;;5080013;28;20208;-71
2021/05/14 11:17:16;;;;;;;4.80;1.87;;;24.10;49.70;;;;;;5078473;28;20233;-71
2021/05/14 11:19:54;;;;;;;4.30;1.83;;;24.00;47.40;;;;;;5088349;28;20250;-71
2021/05/14 11:22:25;;;;;;;5.20;2.13;;;23.90;48.30;;;;;;5103829;28;20244;-72
2021/05/14 11:25:13;;;;;;;9.93;2.77;;;23.80;48.00;;;;;;5081859;28;20266;-72
2021/05/14 11:27:42;;;;;;;8.07;2.53;;;23.70;47.30;;;;;;5100556;28;20213;-72
2021/05/14 11:30:15;;;;;;;7.27;2.60;;;23.60;46.60;;;;;;5104372;28;20212;-71
2021/05/14 11:32:44;;;;;;;5.47;2.20;;;23.30;47.30;;;;;;5105651;28;20628;-72
2021/05/14 11:35:12;;;;;;;9.20;3.73;;;23.20;47.70;;;;;;5105408;28;20547;-71
2021/05/14 11:37:56;;;;;;;6.67;2.97;;;23.10;47.60;;;;;;5101962;28;20217;-71
2021/05/14 11:40:38;;;;;;;3.60;2.07;;;22.90;48.50;;;;;;5101950;28;20216;-72
2021/05/14 11:43:13;;;;;;;6.57;3.20;;;22.90;50.70;;;;;;5103271;28;20208;-72
2021/05/14 11:45:47;;;;;;;7.53;3.90;;;22.80;51.60;;;;;;5103496;28;20222;-72
2021/05/14 11:48:21;;;;;;;10.57;2.27;;;22.60;52.50;;;;;;5106172;28;20216;-73
2021/05/14 11:50:52;;;;;;;6.03;1.67;;;22.40;54.00;;;;;;5103753;28;20222;-73
2021/05/14 11:53:20;;;;;;;3.73;1.87;;;22.20;54.90;;;;;;5086012;28;20212;-73
2021/05/14 11:55:51;;;;;;;9.97;4.37;;;22.00;55.40;;;;;;5086029;28;20756;-73
2021/05/14 11:58:19;;;;;;;12.10;2.77;;;21.80;56.40;;;;;;5107597;28;20223;-72
2021/05/14 12:00:52;;;;;;;13.03;2.30;;;21.60;57.90;;;;;;5087767;28;20215;-72
2021/05/14 12:03:23;;;;;;;5.40;1.93;;;21.40;57.70;;;;;;5088219;28;20759;-72
2021/05/14 12:05:52;;;;;;;7.40;1.87;;;21.00;55.00;;;;;;5098955;28;20265;-72
2021/05/14 12:08:26;;;;;;;4.87;1.50;;;20.60;55.00;;;;;;5105479;28;20205;-72
2021/05/14 12:10:57;;;;;;;4.23;1.47;;;20.10;56.50;;;;;;5086755;28;20212;-71
2021/05/14 12:13:25;;;;;;;5.03;1.40;;;19.70;58.10;;;;;;5103884;28;20471;-71
2021/05/14 12:16:03;;;;;;;1.80;1.23;;;19.30;58.90;;;;;;5085615;28;20243;-72
2021/05/14 12:18:36;;;;;;;9.87;1.77;;;19.10;61.30;;;;;;5085850;28;20642;-72
2021/05/14 12:21:08;;;;;;;5.63;1.97;;;19.00;63.90;;;;;;5106027;28;20432;-72
2021/05/14 12:23:35;;;;;;;5.57;1.50;;;19.00;66.20;;;;;;5085528;28;20528;-72
2021/05/14 12:26:06;;;;;;;8.53;1.73;;;18.90;66.00;;;;;;5105130;28;20281;-72
2021/05/14 12:28:45;;;;;;;5.03;1.70;;;18.90;64.40;;;;;;5105133;28;20216;-73
2021/05/14 12:31:31;;;;;;;3.83;1.60;;;18.90;66.80;;;;;;5082998;28;20557;-73
2021/05/14 12:34:00;;;;;;;2.30;0.80;;;18.90;67.60;;;;;;5087015;28;20710;-73
2021/05/14 12:36:32;;;;;;;2.17;0.80;;;18.90;67.90;;;;;;5105050;28;20229;-72
2021/05/14 12:39:12;;;;;;;4.30;1.10;;;18.90;68.40;;;;;;5104310;28;20300;-73
2021/05/14 12:41:43;;;;;;;2.73;1.00;;;18.80;69.00;;;;;;5100349;28;20204;-72
2021/05/14 12:44:18;;;;;;;1.07;0.87;;;18.80;69.60;;;;;;5102423;28;20625;-72
2021/05/14 12:47:08;;;;;;;3.37;1.10;;;18.70;70.70;;;;;;5106592;28;20220;-72
2021/05/14 12:49:50;;;;;;;1.83;0.80;;;18.60;71.90;;;;;;5101890;28;20244;-72
2021/05/14 12:52:25;;;;;;;5.00;1.23;;;18.50;72.20;;;;;;5105670;28;20226;-71
2021/05/14 12:54:55;;;;;;;3.57;1.40;;;18.40;72.40;;;;;;5061419;28;20220;-71
2021/05/14 12:57:40;;;;;;;5.50;1.30;;;18.20;73.20;;;;;;5097036;28;20315;-72
2021/05/14 13:00:24;;;;;;;3.33;1.40;;;18.10;74.80;;;;;;5103145;28;20270;-72
2021/05/14 13:02:56;;;;;;;6.10;1.97;;;18.00;75.50;;;;;;5084278;28;20252;-72
2021/05/14 13:05:45;;;;;;;6.70;2.30;;;17.80;75.60;;;;;;5086418;28;20215;-72
2021/05/14 13:08:32;;;;;;;4.37;1.70;;;17.70;76.30;;;;;;5105892;28;20668;-72
2021/05/14 13:11:01;;;;;;;9.83;2.23;;;17.60;76.80;;;;;;5102442;28;20616;-72
2021/05/14 13:13:29;;;;;;;8.50;1.40;;;17.50;77.70;;;;;;5103844;28;20640;-72
2021/05/14 13:15:57;;;;;;;4.50;2.03;;;17.40;78.20;;;;;;5102220;28;20221;-73
2021/05/14 13:18:37;;;;;;;5.73;1.50;;;17.30;78.50;;;;;;5080788;28;20553;-72
2021/05/14 13:21:06;;;;;;;5.50;2.90;;;17.30;79.00;;;;;;5099160;28;20364;-72